createdAt,value
2022-09-23T00:01:03.260Z,101780.84
2022-09-23T00:03:31.700Z,101779.84
2022-09-23T00:06:03.544Z,101775.25
2022-09-23T00:08:30.815Z,101773.19
2022-09-23T00:10:57.980Z,101773.19
2022-09-23T00:13:25.341Z,101776.56
2022-09-23T00:15:52.591Z,101770.78
2022-09-23T00:18:20.528Z,101762.66
2022-09-23T00:20:47.590Z,101766.22
2022-09-23T00:23:13.940Z,101773.28
2022-09-23T00:25:40.333Z,101764.13
2022-09-23T00:28:06.703Z,101760.41
2022-09-23T00:30:33.209Z,101758.97
2022-09-23T00:33:00.180Z,101755.06
2022-09-23T00:35:26.588Z,101745.91
2022-09-23T00:37:52.960Z,101745.53
2022-09-23T00:40:19.438Z,101749.09
2022-09-23T00:42:48.262Z,101753.47
2022-09-23T00:45:15.786Z,101750.31
2022-09-23T00:47:54.650Z,101751.34
2022-09-23T00:50:31.269Z,101752.16
2022-09-23T00:53:00.354Z,101745.91
2022-09-23T00:55:30.260Z,101746.31
2022-09-23T00:58:00.153Z,101752.09
2022-09-23T01:00:27.038Z,101742.97
2022-09-23T01:02:54.259Z,101735.88
2022-09-23T01:05:21.033Z,101734.00
2022-09-23T01:07:48.129Z,101732.34
2022-09-23T01:10:18.467Z,101724.59
2022-09-23T01:13:00.130Z,101724.59
2022-09-23T01:15:45.294Z,101730.66
2022-09-23T01:18:32.736Z,101725.06
2022-09-23T01:21:17.162Z,101731.50
2022-09-23T01:24:21.247Z,101727.94
2022-09-23T01:26:59.005Z,101730.38
2022-09-23T01:29:50.182Z,101731.22
2022-09-23T01:32:42.407Z,101715.41
2022-09-23T01:35:27.175Z,101712.88
2022-09-23T01:38:18.050Z,101704.13
2022-09-23T01:41:12.385Z,101709.53
2022-09-23T01:44:02.184Z,101710.38
2022-09-23T01:46:37.793Z,101702.63
2022-09-23T01:49:12.066Z,101699.09
2022-09-23T01:51:45.459Z,101705.34
2022-09-23T01:54:34.014Z,101706.16
2022-09-23T01:57:28.768Z,101706.16
2022-09-23T02:00:04.317Z,101705.34
2022-09-23T02:02:44.189Z,101689.13
2022-09-23T02:05:21.189Z,101693.69
2022-09-23T02:07:59.768Z,101685.78
2022-09-23T02:10:33.893Z,101682.41
2022-09-23T02:13:07.323Z,101678.00
2022-09-23T02:15:49.571Z,101676.13
2022-09-23T02:18:21.806Z,101672.44
2022-09-23T02:20:53.471Z,101674.97
2022-09-23T02:23:27.504Z,101667.19
2022-09-23T02:26:19.806Z,101669.72
2022-09-23T02:29:16.561Z,101665.53
2022-09-23T02:31:53.594Z,101661.97
2022-09-23T02:34:34.921Z,101660.28
2022-09-23T02:37:17.018Z,101656.28
2022-09-23T02:40:05.225Z,101651.72
2022-09-23T02:42:47.962Z,101650.06
2022-09-23T02:45:14.862Z,101651.09
2022-09-23T02:47:47.182Z,101648.56
2022-09-23T02:50:13.792Z,101649.59
2022-09-23T02:52:40.223Z,101648.75
2022-09-23T02:55:11.791Z,101648.97
2022-09-23T02:57:38.642Z,101639.56
2022-09-23T03:00:05.814Z,101638.53
2022-09-23T03:02:52.046Z,101640.56
2022-09-23T03:05:24.624Z,101642.63
2022-09-23T03:08:09.765Z,101633.88
2022-09-23T03:10:36.088Z,101638.66
2022-09-23T03:13:15.185Z,101632.56
2022-09-23T03:15:57.173Z,101636.97
2022-09-23T03:18:37.051Z,101628.00
2022-09-23T03:21:09.642Z,101629.69
2022-09-23T03:23:40.322Z,101632.56
2022-09-23T03:26:19.102Z,101624.47
2022-09-23T03:28:46.884Z,101615.91
2022-09-23T03:31:15.161Z,101613.41
2022-09-23T03:33:46.790Z,101617.13
2022-09-23T03:36:34.849Z,101616.94
2022-09-23T03:39:08.485Z,101618.19
2022-09-23T03:41:45.012Z,101613.16
2022-09-23T03:44:11.962Z,101611.84
2022-09-23T03:46:38.433Z,101617.25
2022-09-23T03:49:16.882Z,101611.03
2022-09-23T03:51:44.750Z,101609.31
2022-09-23T03:54:11.706Z,101611.03
2022-09-23T03:56:38.056Z,101613.72
2022-09-23T03:59:04.468Z,101602.09
2022-09-23T04:01:30.901Z,101600.00
2022-09-23T04:03:57.276Z,101593.78
2022-09-23T04:06:23.641Z,101590.25
2022-09-23T04:08:50.434Z,101595.44
2022-09-23T04:11:16.938Z,101595.06
2022-09-23T04:13:43.273Z,101591.31
2022-09-23T04:16:09.698Z,101593.00
2022-09-23T04:18:36.145Z,101587.22
2022-09-23T04:21:02.577Z,101580.97
2022-09-23T04:23:28.938Z,101581.19
2022-09-23T04:25:55.381Z,101579.09
2022-09-23T04:28:22.455Z,101570.63
2022-09-23T04:30:49.331Z,101576.03
2022-09-23T04:33:16.500Z,101575.81
2022-09-23T04:35:43.398Z,101575.81
2022-09-23T04:38:12.374Z,101579.56
2022-09-23T04:40:39.190Z,101581.44
2022-09-23T04:43:05.889Z,101580.59
2022-09-23T04:45:32.365Z,101576.41
2022-09-23T04:47:59.230Z,101572.03
2022-09-23T04:50:26.528Z,101568.31
2022-09-23T04:52:53.941Z,101584.34
2022-09-23T04:55:21.407Z,101582.66
2022-09-23T04:57:48.078Z,101579.94
2022-09-23T05:00:15.305Z,101578.06
2022-09-23T05:02:50.337Z,101583.47
2022-09-23T05:05:21.034Z,101582.66
2022-09-23T05:07:48.369Z,101588.03
2022-09-23T05:10:15.702Z,101588.88
2022-09-23T05:12:42.105Z,101587.03
2022-09-23T05:15:08.653Z,101589.91
2022-09-23T05:17:37.129Z,101587.22
2022-09-23T05:20:04.764Z,101585.09
2022-09-23T05:22:31.389Z,101585.47
2022-09-23T05:24:59.733Z,101578.84
2022-09-23T05:27:26.094Z,101582.19
2022-09-23T05:29:52.978Z,101582.84
2022-09-23T05:32:20.187Z,101584.34
2022-09-23T05:34:46.677Z,101584.13
2022-09-23T05:37:13.110Z,101586.00
2022-09-23T05:39:39.530Z,101590.56
2022-09-23T05:42:06.150Z,101592.44
2022-09-23T05:44:32.550Z,101582.28
2022-09-23T05:46:59.101Z,101589.34
2022-09-23T05:49:37.935Z,101579.38
2022-09-23T05:52:11.883Z,101585.81
2022-09-23T05:54:38.441Z,101580.59
2022-09-23T05:57:06.004Z,101591.22
2022-09-23T05:59:32.689Z,101583.94
2022-09-23T06:01:59.814Z,101588.97
2022-09-23T06:04:26.252Z,101590.47
2022-09-23T06:06:53.062Z,101590.25
2022-09-23T06:09:19.420Z,101587.94
2022-09-23T06:11:46.700Z,101587.56
2022-09-23T06:14:14.656Z,101589.03
2022-09-23T06:16:41.229Z,101585.31
2022-09-23T06:19:07.694Z,101580.56
2022-09-23T06:21:36.552Z,101587.63
2022-09-23T06:24:03.465Z,101588.66
2022-09-23T06:26:33.502Z,101589.75
2022-09-23T06:29:01.775Z,101594.78
2022-09-23T06:31:29.106Z,101592.06
2022-09-23T06:34:05.493Z,101591.03
2022-09-23T06:36:43.469Z,101584.97
2022-09-23T06:39:11.428Z,101586.22
2022-09-23T06:41:38.255Z,101581.63
2022-09-23T06:44:09.724Z,101577.53
2022-09-23T06:46:36.816Z,101591.88
2022-09-23T06:49:03.718Z,101580.69
2022-09-23T06:51:30.450Z,101581.50
2022-09-23T06:53:56.822Z,101587.41
2022-09-23T06:56:23.616Z,101578.03
2022-09-23T06:58:52.139Z,101583.28
2022-09-23T07:01:19.763Z,101575.78
2022-09-23T07:03:48.091Z,101575.63
2022-09-23T07:06:15.022Z,101578.31
2022-09-23T07:08:44.738Z,101581.03
2022-09-23T07:11:12.974Z,101576.47
2022-09-23T07:13:41.258Z,101579.41
2022-09-23T07:16:08.893Z,101581.91
2022-09-23T07:18:37.264Z,101582.56
2022-09-23T07:21:15.678Z,101568.66
2022-09-23T07:23:44.035Z,101582.22
2022-09-23T07:26:10.417Z,101583.50
2022-09-23T07:28:37.255Z,101574.16
2022-09-23T07:31:15.824Z,101580.03
2022-09-23T07:33:46.492Z,101583.16
2022-09-23T07:36:19.129Z,101583.78
2022-09-23T07:38:47.267Z,101575.50
2022-09-23T07:41:16.960Z,101578.00
2022-09-23T07:43:44.770Z,101575.28
2022-09-23T07:46:14.976Z,101577.41
2022-09-23T07:48:41.951Z,101581.59
2022-09-23T07:51:17.302Z,101579.13
2022-09-23T07:53:49.885Z,101571.66
2022-09-23T07:56:18.919Z,101577.06
2022-09-23T07:58:46.730Z,101575.81
2022-09-23T08:01:13.618Z,101576.91
2022-09-23T08:03:40.041Z,101581.91
2022-09-23T08:06:13.057Z,101581.97
2022-09-23T08:08:43.492Z,101584.06
2022-09-23T08:11:13.085Z,101571.59
2022-09-23T08:13:40.128Z,101576.22
2022-09-23T08:16:06.711Z,101582.69
2022-09-23T08:18:33.503Z,101588.78
2022-09-23T08:21:00.128Z,101591.66
2022-09-23T08:23:26.662Z,101580.44
2022-09-23T08:26:01.544Z,101590.03
2022-09-23T08:28:28.169Z,101585.06
2022-09-23T08:30:55.270Z,101585.06
2022-09-23T08:33:23.485Z,101583.63
2022-09-23T08:35:50.981Z,101579.66
2022-09-23T08:38:18.157Z,101581.34
2022-09-23T08:40:49.382Z,101583.84
2022-09-23T08:43:30.910Z,101581.13
2022-09-23T08:46:02.510Z,101578.44
2022-09-23T08:48:33.294Z,101577.38
2022-09-23T08:51:06.233Z,101569.72
2022-09-23T08:53:38.170Z,101567.19
2022-09-23T08:56:14.289Z,101569.72
2022-09-23T08:59:13.251Z,101568.28
2022-09-23T09:01:40.326Z,101566.00
2022-09-23T09:04:27.972Z,101575.63
2022-09-23T09:07:35.747Z,101570.41
2022-09-23T09:10:20.428Z,101571.03
2022-09-23T09:13:07.473Z,101568.13
2022-09-23T09:15:44.560Z,101570.63
2022-09-23T09:18:31.777Z,101565.22
2022-09-23T09:21:12.472Z,101576.03
2022-09-23T09:24:02.423Z,101577.53
2022-09-23T09:26:32.616Z,101581.91
2022-09-23T09:29:30.728Z,101580.84
2022-09-23T09:31:57.501Z,101585.25
2022-09-23T09:34:27.743Z,101584.00
2022-09-23T09:37:04.663Z,101576.09
2022-09-23T09:39:35.086Z,101570.66
2022-09-23T09:42:02.642Z,101566.06
2022-09-23T09:45:19.707Z,101566.50
2022-09-23T09:47:56.643Z,101568.81
2022-09-23T09:50:41.305Z,101567.53
2022-09-23T09:53:36.799Z,101564.88
2022-09-23T09:56:12.784Z,101560.28
2022-09-23T09:59:00.717Z,101564.28
2022-09-23T10:01:28.825Z,101565.72
2022-09-23T10:03:59.571Z,101564.88
2022-09-23T10:06:28.925Z,101556.56
2022-09-23T10:09:01.596Z,101548.44
2022-09-23T10:11:32.452Z,101543.84
2022-09-23T10:14:19.409Z,101555.72
2022-09-23T10:16:48.756Z,101553.66
2022-09-23T10:19:29.242Z,101543.63
2022-09-23T10:22:00.124Z,101545.50
2022-09-23T10:24:30.411Z,101541.09
2022-09-23T10:27:03.192Z,101541.75
2022-09-23T10:30:00.701Z,101541.75
2022-09-23T10:32:31.620Z,101535.91
2022-09-23T10:35:08.833Z,101533.00
2022-09-23T10:37:41.858Z,101531.31
2022-09-23T10:40:44.137Z,101529.22
2022-09-23T10:43:45.650Z,101537.78
2022-09-23T10:46:45.838Z,101551.56
2022-09-23T10:49:37.192Z,101547.81
2022-09-23T10:52:22.181Z,101542.41
2022-09-23T10:55:27.120Z,101539.25
2022-09-23T10:58:14.073Z,101548.44
2022-09-23T11:00:52.174Z,101551.97
2022-09-23T11:03:54.378Z,101543.44
2022-09-23T11:06:32.917Z,101544.69
2022-09-23T11:09:33.347Z,101543.41
2022-09-23T11:12:18.022Z,101546.94
2022-09-23T11:14:59.984Z,101537.97
2022-09-23T11:17:40.704Z,101543.22
2022-09-23T11:20:35.887Z,101540.06
2022-09-23T11:23:24.687Z,101543.00
2022-09-23T11:26:19.470Z,101535.09
2022-09-23T11:29:16.726Z,101538.63
2022-09-23T11:32:01.548Z,101529.44
2022-09-23T11:34:52.562Z,101532.56
2022-09-23T11:37:27.588Z,101532.97
2022-09-23T11:40:15.107Z,101531.72
2022-09-23T11:42:55.049Z,101529.66
2022-09-23T11:45:28.958Z,101528.41
2022-09-23T11:48:00.382Z,101522.75
2022-09-23T11:50:33.949Z,101522.13
2022-09-23T11:53:25.540Z,101511.88
2022-09-23T11:56:00.621Z,101506.44
2022-09-23T11:58:33.104Z,101506.19
2022-09-23T12:01:09.309Z,101503.44
2022-09-23T12:03:51.907Z,101500.94
2022-09-23T12:06:26.773Z,101510.75
2022-09-23T12:09:01.987Z,101497.09
2022-09-23T12:11:49.446Z,101495.63
2022-09-23T12:14:40.839Z,101488.09
2022-09-23T12:17:15.195Z,101486.22
2022-09-23T12:19:58.375Z,101488.72
2022-09-23T12:22:55.899Z,101494.38
2022-09-23T12:25:46.482Z,101486.22
2022-09-23T12:28:37.624Z,101482.69
2022-09-23T12:31:11.708Z,101484.09
2022-09-23T12:33:38.610Z,101478.47
2022-09-23T12:36:12.180Z,101480.38
2022-09-23T12:38:46.856Z,101476.78
2022-09-23T12:41:37.503Z,101474.28
2022-09-23T12:44:23.166Z,101475.69
2022-09-23T12:47:24.950Z,101474.88
2022-09-23T12:49:53.069Z,101473.66
2022-09-23T12:52:20.405Z,101464.47
2022-09-23T12:54:49.238Z,101461.75
2022-09-23T12:57:33.880Z,101461.94
2022-09-23T13:00:06.441Z,101463.41
2022-09-23T13:02:32.846Z,101463.19
2022-09-23T13:05:27.319Z,101457.91
2022-09-23T13:08:05.228Z,101454.78
2022-09-23T13:10:43.082Z,101459.59
2022-09-23T13:13:23.470Z,101458.13
2022-09-23T13:15:50.361Z,101453.06
2022-09-23T13:18:22.590Z,101457.22
2022-09-23T13:20:53.924Z,101451.13
2022-09-23T13:23:28.463Z,101452.75
2022-09-23T13:26:01.466Z,101446.66
2022-09-23T13:28:53.434Z,101445.81
2022-09-23T13:31:21.039Z,101445.16
2022-09-23T13:33:52.926Z,101442.81
2022-09-23T13:36:20.087Z,101440.09
2022-09-23T13:38:47.024Z,101439.03
2022-09-23T13:41:17.674Z,101444.47
2022-09-23T13:43:49.130Z,101441.53
2022-09-23T13:46:21.539Z,101437.59
2022-09-23T13:48:51.708Z,101444.75
2022-09-23T13:51:32.950Z,101439.31
2022-09-23T13:54:01.787Z,101434.72
2022-09-23T13:56:31.174Z,101425.50
2022-09-23T13:59:25.764Z,101421.50
2022-09-23T14:02:10.655Z,101423.63
2022-09-23T14:04:37.701Z,101423.84
2022-09-23T14:07:04.703Z,101414.63
2022-09-23T14:09:31.650Z,101422.34
2022-09-23T14:12:00.558Z,101417.72
2022-09-23T14:14:29.905Z,101422.97
2022-09-23T14:16:58.262Z,101416.06
2022-09-23T14:19:25.939Z,101416.69
2022-09-23T14:21:56.304Z,101412.91
2022-09-23T14:24:30.178Z,101412.91
2022-09-23T14:27:00.411Z,101409.38
2022-09-23T14:29:39.351Z,101400.97
2022-09-23T14:32:20.880Z,101401.59
2022-09-23T14:34:50.158Z,101398.66
2022-09-23T14:37:52.160Z,101396.75
2022-09-23T14:40:28.920Z,101397.38
2022-09-23T14:42:55.461Z,101393.59
2022-09-23T14:45:25.607Z,101390.50
2022-09-23T14:47:58.451Z,101390.50
2022-09-23T14:50:39.948Z,101391.31
2022-09-23T14:53:32.393Z,101384.00
2022-09-23T14:56:07.607Z,101380.88
2022-09-23T14:59:03.443Z,101377.13
2022-09-23T15:01:38.794Z,101369.56
2022-09-23T15:04:23.533Z,101376.06
2022-09-23T15:06:55.033Z,101372.53
2022-09-23T15:09:25.982Z,101381.72
2022-09-23T15:12:06.639Z,101376.25
2022-09-23T15:14:41.075Z,101372.28
2022-09-23T15:17:31.724Z,101374.78
2022-09-23T15:20:08.902Z,101366.84
2022-09-23T15:22:46.066Z,101373.56
2022-09-23T15:25:17.353Z,101373.56
2022-09-23T15:27:58.331Z,101376.25
2022-09-23T15:30:24.955Z,101370.00
2022-09-23T15:32:51.506Z,101368.34
2022-09-23T15:35:20.931Z,101371.91
2022-09-23T15:37:49.965Z,101371.69
2022-09-23T15:40:25.715Z,101373.34
2022-09-23T15:42:58.300Z,101364.56
2022-09-23T15:45:42.896Z,101363.53
2022-09-23T15:48:14.800Z,101367.28
2022-09-23T15:50:42.407Z,101360.41
2022-09-23T15:53:15.170Z,101354.22
2022-09-23T15:55:41.558Z,101355.25
2022-09-23T15:58:07.956Z,101365.06
2022-09-23T16:00:37.634Z,101361.97
2022-09-23T16:03:06.523Z,101358.44
2022-09-23T16:05:37.704Z,101365.75
2022-09-23T16:08:09.033Z,101361.16
2022-09-23T16:10:36.781Z,101367.66
2022-09-23T16:13:06.217Z,101364.09
2022-09-23T16:15:32.888Z,101365.09
2022-09-23T16:18:00.215Z,101370.75
2022-09-23T16:20:29.667Z,101372.84
2022-09-23T16:23:01.119Z,101368.47
2022-09-23T16:25:31.391Z,101360.13
2022-09-23T16:27:58.506Z,101370.75
2022-09-23T16:30:29.340Z,101362.59
2022-09-23T16:32:56.313Z,101361.16
2022-09-23T16:35:25.551Z,101359.25
2022-09-23T16:37:52.786Z,101358.00
2022-09-23T16:40:21.465Z,101357.19
2022-09-23T16:42:49.846Z,101363.44
2022-09-23T16:45:18.089Z,101359.88
2022-09-23T16:47:46.639Z,101354.69
2022-09-23T16:50:15.042Z,101355.72
2022-09-23T16:52:41.950Z,101361.81
2022-09-23T16:55:10.534Z,101364.97
2022-09-23T16:57:38.513Z,101370.47
2022-09-23T17:00:27.259Z,101360.03
2022-09-23T17:03:12.304Z,101358.81
2022-09-23T17:05:38.696Z,101353.22
2022-09-23T17:08:05.556Z,101361.59
2022-09-23T17:10:32.918Z,101358.03
2022-09-23T17:13:00.437Z,101357.25
2022-09-23T17:15:26.873Z,101354.59
2022-09-23T17:17:53.270Z,101362.94
2022-09-23T17:20:20.004Z,101360.88
2022-09-23T17:22:46.477Z,101366.31
2022-09-23T17:25:12.853Z,101368.00
2022-09-23T17:27:39.235Z,101372.38
2022-09-23T17:30:06.199Z,101366.13
2022-09-23T17:32:32.557Z,101357.34
2022-09-23T17:35:04.323Z,101356.75
2022-09-23T17:37:32.114Z,101368.63
2022-09-23T17:39:59.501Z,101363.19
2022-09-23T17:42:26.060Z,101371.56
2022-09-23T17:44:52.452Z,101362.84
2022-09-23T17:47:18.782Z,101364.31
2022-09-23T17:49:47.432Z,101368.06
2022-09-23T17:52:13.795Z,101351.16
2022-09-23T17:54:40.148Z,101355.53
2022-09-23T17:57:06.558Z,101355.53
2022-09-23T17:59:32.957Z,101349.28
2022-09-23T18:01:59.530Z,101347.16
2022-09-23T18:04:26.090Z,101349.88
2022-09-23T18:06:52.480Z,101347.16
2022-09-23T18:09:19.357Z,101343.63
2022-09-23T18:11:46.570Z,101349.28
2022-09-23T18:14:21.058Z,101350.09
2022-09-23T18:16:52.933Z,101349.28
2022-09-23T18:19:22.001Z,101346.78
2022-09-23T18:21:54.396Z,101353.06
2022-09-23T18:24:31.882Z,101351.16
2022-09-23T18:26:59.715Z,101351.38
2022-09-23T18:29:26.370Z,101350.53
2022-09-23T18:31:52.934Z,101348.06
2022-09-23T18:34:20.046Z,101353.47
2022-09-23T18:36:46.623Z,101342.22
2022-09-23T18:39:13.004Z,101351.44
2022-09-23T18:41:39.394Z,101346.19
2022-09-23T18:44:05.899Z,101344.34
2022-09-23T18:46:32.512Z,101348.06
2022-09-23T18:49:18.178Z,101350.59
2022-09-23T18:51:55.709Z,101344.34
2022-09-23T18:54:28.482Z,101341.00
2022-09-23T18:56:55.374Z,101342.66
2022-09-23T18:59:25.767Z,101343.47
2022-09-23T19:01:54.703Z,101344.53
2022-09-23T19:04:22.269Z,101337.22
2022-09-23T19:06:49.834Z,101337.22
2022-09-23T19:09:17.744Z,101353.31
2022-09-23T19:11:44.635Z,101345.38
2022-09-23T19:14:12.281Z,101342.88
2022-09-23T19:16:40.531Z,101335.34
2022-09-23T19:19:07.415Z,101340.16
2022-09-23T19:21:34.683Z,101332.84
2022-09-23T19:24:07.183Z,101337.22
2022-09-23T19:26:39.598Z,101338.03
2022-09-23T19:29:12.381Z,101339.53
2022-09-23T19:31:39.893Z,101338.50
2022-09-23T19:34:11.625Z,101340.75
2022-09-23T19:36:40.520Z,101338.91
2022-09-23T19:39:11.782Z,101342.66
2022-09-23T19:41:38.308Z,101347.72
2022-09-23T19:44:07.135Z,101350.88
2022-09-23T19:46:39.054Z,101342.31
2022-09-23T19:49:07.030Z,101348.00
2022-09-23T19:51:34.597Z,101348.66
2022-09-23T19:54:02.074Z,101344.28
2022-09-23T19:56:29.540Z,101349.09
2022-09-23T19:58:57.058Z,101351.59
2022-09-23T20:01:25.032Z,101347.84
2022-09-23T20:03:51.490Z,101349.31
2022-09-23T20:06:18.095Z,101343.69
2022-09-23T20:08:45.164Z,101333.66
2022-09-23T20:11:14.109Z,101336.19
2022-09-23T20:13:43.817Z,101335.78
2022-09-23T20:16:13.304Z,101334.13
2022-09-23T20:18:40.590Z,101326.19
2022-09-23T20:21:10.670Z,101323.03
2022-09-23T20:23:37.769Z,101324.69
2022-09-23T20:26:26.221Z,101325.53
2022-09-23T20:28:52.953Z,101311.75
2022-09-23T20:31:21.875Z,101320.50
2022-09-23T20:33:52.173Z,101322.00
2022-09-23T20:36:18.922Z,101313.84
2022-09-23T20:38:45.321Z,101305.09
2022-09-23T20:41:11.857Z,101314.91
2022-09-23T20:43:38.617Z,101314.06
2022-09-23T20:46:05.362Z,101312.19
2022-09-23T20:48:32.124Z,101312.19
2022-09-23T20:51:05.794Z,101311.13
2022-09-23T20:53:32.543Z,101313.25
2022-09-23T20:55:59.686Z,101305.09
2022-09-23T20:58:29.164Z,101311.78
2022-09-23T21:01:12.990Z,101309.50
2022-09-23T21:03:42.158Z,101302.41
2022-09-23T21:06:10.363Z,101303.69
2022-09-23T21:08:37.668Z,101303.28
2022-09-23T21:11:06.240Z,101302.44
2022-09-23T21:13:33.489Z,101294.91
2022-09-23T21:16:08.175Z,101299.09
2022-09-23T21:18:37.882Z,101297.63
2022-09-23T21:21:06.196Z,101296.84
2022-09-23T21:23:34.624Z,101297.03
2022-09-23T21:26:03.606Z,101298.09
2022-09-23T21:28:37.710Z,101293.31
2022-09-23T21:31:07.595Z,101288.13
2022-09-23T21:33:37.274Z,101296.69
2022-09-23T21:36:07.273Z,101296.88
2022-09-23T21:38:35.675Z,101301.88
2022-09-23T21:41:07.397Z,101303.16
2022-09-23T21:43:35.927Z,101293.38
2022-09-23T21:46:07.570Z,101298.97
2022-09-23T21:48:41.146Z,101301.50
2022-09-23T21:51:40.182Z,101295.84
2022-09-23T21:54:11.917Z,101290.22
2022-09-23T21:56:38.274Z,101300.44
2022-09-23T21:59:05.510Z,101295.03
2022-09-23T22:01:36.372Z,101293.97
2022-09-23T22:04:08.217Z,101297.50
2022-09-23T22:06:37.938Z,101291.25
2022-09-23T22:09:10.235Z,101294.78
2022-09-23T22:11:56.709Z,101300.22
2022-09-23T22:14:25.710Z,101292.09
2022-09-23T22:16:57.309Z,101285.84
2022-09-23T22:19:32.673Z,101295.03
2022-09-23T22:21:59.118Z,101291.47
2022-09-23T22:24:25.477Z,101285.00
2022-09-23T22:26:51.901Z,101282.28
2022-09-23T22:29:36.985Z,101274.78
2022-09-23T22:32:27.363Z,101280.81
2022-09-23T22:34:53.823Z,101272.06
2022-09-23T22:37:26.201Z,101277.47
2022-09-23T22:39:52.810Z,101268.50
2022-09-23T22:42:21.730Z,101270.81
2022-09-23T22:44:48.658Z,101262.69
2022-09-23T22:47:15.489Z,101261.03
2022-09-23T22:49:42.786Z,101260.84
2022-09-23T22:52:11.104Z,101257.06
2022-09-23T22:54:37.818Z,101259.38
2022-09-23T22:57:05.324Z,101258.72
2022-09-23T22:59:32.030Z,101250.59
2022-09-23T23:02:02.826Z,101252.47
2022-09-23T23:04:30.088Z,101245.41
2022-09-23T23:06:58.543Z,101243.50
2022-09-23T23:09:25.347Z,101242.47
2022-09-23T23:11:51.777Z,101244.94
2022-09-23T23:14:18.768Z,101253.72
2022-09-23T23:16:45.931Z,101250.19
2022-09-23T23:19:16.422Z,101247.25
2022-09-23T23:21:43.569Z,101247.88
2022-09-23T23:24:15.470Z,101245.16
2022-09-23T23:26:42.497Z,101237.22
2022-09-23T23:29:11.166Z,101239.09
2022-09-23T23:31:37.988Z,101247.25
2022-09-23T23:34:04.849Z,101242.03
2022-09-23T23:36:31.257Z,101242.47
2022-09-23T23:38:57.631Z,101237.88
2022-09-23T23:41:24.002Z,101238.69
2022-09-23T23:43:55.215Z,101235.78
2022-09-23T23:46:27.545Z,101236.63
2022-09-23T23:48:55.374Z,101232.03
2022-09-23T23:51:22.837Z,101227.25
2022-09-23T23:53:49.236Z,101235.97
2022-09-23T23:56:18.571Z,101227.00
2022-09-23T23:58:45.293Z,101222.84
